Time;durP1;ratioP1;P1;durP2;ratioP2;P2;SDS_P1;SDS_P2;PMS_P1;PMS_P2;Temp;Humidity;BMP_temperature;BMP_pressure;BME280_temperature;BME280_humidity;BME280_pressure;Samples;Min_cycle;Max_cycle;Signal;HPM_P1;HPM_P2
2021/10/30 00:01:45;;;;;;;33.75;27.02;;;12.50;95.80;;;;;;5094717;28;20234;-65
2021/10/30 00:04:12;;;;;;;27.13;24.25;;;12.50;95.90;;;;;;5094951;28;20223;-65
2021/10/30 00:06:39;;;;;;;27.23;24.33;;;12.50;96.00;;;;;;5094597;28;20281;-65
2021/10/30 00:09:06;;;;;;;28.65;25.65;;;12.50;95.90;;;;;;5094345;28;20280;-65
2021/10/30 00:11:33;;;;;;;33.40;29.80;;;12.50;96.00;;;;;;5095149;28;20227;-65
2021/10/30 00:14:00;;;;;;;27.40;24.30;;;12.50;96.00;;;;;;5093847;28;20260;-65
2021/10/30 00:16:27;;;;;;;27.63;24.52;;;12.50;95.90;;;;;;5094761;28;20298;-66
2021/10/30 00:18:55;;;;;;;29.38;26.27;;;12.40;95.90;;;;;;5094558;28;20240;-66
2021/10/30 00:21:22;;;;;;;28.95;24.00;;;12.40;95.90;;;;;;5094463;28;20211;-66
2021/10/30 00:23:49;;;;;;;30.13;26.63;;;12.40;95.90;;;;;;5094641;28;20707;-65
2021/10/30 00:26:16;;;;;;;27.20;24.38;;;12.40;95.90;;;;;;5094159;28;20677;-66
2021/10/30 00:28:44;;;;;;;26.67;23.52;;;12.40;96.00;;;;;;5094612;28;20223;-66
2021/10/30 00:31:11;;;;;;;30.40;26.95;;;12.40;96.10;;;;;;5094107;28;20254;-66
2021/10/30 00:33:39;;;;;;;29.30;23.48;;;12.40;96.20;;;;;;5088386;28;20227;-66
2021/10/30 00:36:08;;;;;;;28.40;25.38;;;12.40;96.30;;;;;;5087255;28;20296;-66
2021/10/30 00:38:35;;;;;;;43.08;27.33;;;12.40;96.20;;;;;;5094604;28;20223;-66
2021/10/30 00:41:04;;;;;;;28.27;25.58;;;12.40;96.20;;;;;;5094363;28;20681;-66
2021/10/30 00:43:31;;;;;;;27.85;25.15;;;12.40;96.20;;;;;;5090390;28;20223;-66
2021/10/30 00:45:59;;;;;;;25.98;23.38;;;12.30;96.20;;;;;;5094490;28;20223;-66
2021/10/30 00:48:26;;;;;;;29.10;25.30;;;12.40;96.30;;;;;;5094082;28;20257;-66
2021/10/30 00:50:55;;;;;;;30.42;26.77;;;12.30;96.10;;;;;;5094196;28;20234;-66
2021/10/30 00:53:29;;;;;;;28.05;25.15;;;12.30;96.20;;;;;;5093223;28;20226;-66
2021/10/30 00:55:57;;;;;;;28.92;25.80;;;12.30;96.30;;;;;;5094231;28;20230;-67
2021/10/30 00:58:24;;;;;;;29.17;26.08;;;12.20;96.30;;;;;;5093608;28;20219;-66
2021/10/30 01:00:53;;;;;;;28.17;25.48;;;12.20;96.40;;;;;;5094064;28;20584;-66
2021/10/30 01:03:20;;;;;;;26.75;24.15;;;12.20;96.40;;;;;;5093446;28;20280;-66
2021/10/30 01:05:47;;;;;;;26.65;23.55;;;12.20;96.40;;;;;;5093686;28;20223;-67
2021/10/30 01:08:14;;;;;;;28.75;25.85;;;12.20;96.50;;;;;;5093643;28;20226;-65
2021/10/30 01:10:42;;;;;;;28.83;25.88;;;12.20;96.50;;;;;;5092579;28;20535;-66
2021/10/30 01:13:09;;;;;;;28.13;25.27;;;12.20;96.40;;;;;;5093318;27;20231;-66
2021/10/30 01:15:36;;;;;;;32.17;26.25;;;12.20;96.50;;;;;;5093395;28;20223;-66
2021/10/30 01:18:05;;;;;;;28.45;25.35;;;12.20;96.60;;;;;;5093917;28;20219;-66
2021/10/30 01:20:34;;;;;;;28.73;25.13;;;12.10;96.70;;;;;;5093161;28;20243;-66
2021/10/30 01:23:02;;;;;;;29.20;25.73;;;12.10;96.70;;;;;;5093884;28;20230;-66
2021/10/30 01:25:30;;;;;;;29.17;26.08;;;12.10;97.10;;;;;;5092823;28;22891;-66
2021/10/30 01:28:00;;;;;;;29.63;26.52;;;12.10;96.70;;;;;;5093381;28;20234;-66
2021/10/30 01:30:27;;;;;;;29.58;26.60;;;12.10;96.70;;;;;;5090700;28;20685;-66
2021/10/30 01:32:59;;;;;;;28.80;25.63;;;12.10;96.70;;;;;;5093151;28;20219;-66
2021/10/30 01:35:31;;;;;;;30.42;27.20;;;12.10;96.80;;;;;;5080410;28;20219;-66
2021/10/30 01:38:02;;;;;;;29.92;26.75;;;12.10;96.80;;;;;;5093233;28;20230;-66
2021/10/30 01:40:31;;;;;;;27.80;24.80;;;12.10;96.80;;;;;;5092985;28;20235;-66
2021/10/30 01:43:00;;;;;;;29.92;26.55;;;12.10;96.80;;;;;;5089418;28;20233;-66
2021/10/30 01:45:28;;;;;;;29.35;26.35;;;12.10;96.90;;;;;;5092714;28;20688;-66
2021/10/30 01:47:55;;;;;;;27.25;24.35;;;12.10;96.90;;;;;;5093439;28;20265;-66
2021/10/30 01:50:23;;;;;;;29.63;25.02;;;12.10;96.90;;;;;;5092688;28;20920;-66
2021/10/30 01:52:50;;;;;;;32.47;25.77;;;12.10;96.80;;;;;;5092946;28;20756;-66
2021/10/30 01:55:21;;;;;;;31.02;27.73;;;12.10;96.90;;;;;;5092423;28;20223;-66
2021/10/30 01:57:48;;;;;;;29.65;26.52;;;12.10;96.90;;;;;;5092858;28;20226;-66
2021/10/30 02:00:17;;;;;;;30.10;26.85;;;12.10;96.90;;;;;;5092579;28;20254;-66
2021/10/30 02:02:44;;;;;;;33.15;25.20;;;12.10;96.90;;;;;;5092911;28;20252;-66
2021/10/30 02:05:12;;;;;;;28.67;25.50;;;12.10;96.90;;;;;;5092868;28;20544;-65
2021/10/30 02:07:40;;;;;;;29.65;26.17;;;12.10;96.90;;;;;;5092349;28;20226;-66
2021/10/30 02:10:09;;;;;;;30.65;27.65;;;12.10;96.90;;;;;;5091405;28;20526;-66
2021/10/30 02:12:38;;;;;;;32.15;28.70;;;12.10;96.90;;;;;;5091735;28;20227;-66
2021/10/30 02:15:07;;;;;;;29.58;26.48;;;12.10;97.00;;;;;;5092185;28;20223;-66
2021/10/30 02:17:35;;;;;;;29.05;26.15;;;12.10;97.10;;;;;;5089461;28;20240;-66
2021/10/30 02:20:02;;;;;;;31.77;27.35;;;12.10;97.10;;;;;;5092437;28;20227;-66
2021/10/30 02:22:29;;;;;;;28.85;25.88;;;12.20;97.00;;;;;;5092278;28;20227;-66
2021/10/30 02:24:56;;;;;;;28.90;26.05;;;12.20;97.00;;;;;;5092493;28;20230;-66
2021/10/30 02:27:23;;;;;;;28.15;24.83;;;12.20;97.00;;;;;;5092154;28;20215;-67
2021/10/30 02:29:51;;;;;;;29.40;25.75;;;12.30;97.00;;;;;;5092229;28;20227;-66
2021/10/30 02:32:18;;;;;;;28.20;24.85;;;12.30;97.00;;;;;;5090746;28;20556;-66
2021/10/30 02:34:45;;;;;;;28.45;25.33;;;12.40;97.00;;;;;;5091832;28;20231;-66
2021/10/30 02:37:12;;;;;;;27.02;24.25;;;12.40;96.80;;;;;;5092595;28;20284;-66
2021/10/30 02:39:39;;;;;;;27.88;24.85;;;12.40;96.70;;;;;;5091733;28;20296;-67
2021/10/30 02:42:07;;;;;;;30.55;27.23;;;12.50;96.70;;;;;;5092396;28;20219;-66
2021/10/30 02:44:34;;;;;;;28.33;25.20;;;12.50;96.60;;;;;;5091767;28;20253;-66
2021/10/30 02:47:02;;;;;;;26.80;24.15;;;12.60;96.70;;;;;;5092384;28;20222;-66
2021/10/30 02:49:32;;;;;;;33.40;28.38;;;12.60;96.60;;;;;;5091682;28;20239;-67
2021/10/30 02:51:59;;;;;;;28.92;25.63;;;12.60;96.50;;;;;;5092375;28;20226;-66
2021/10/30 02:54:26;;;;;;;31.95;28.65;;;12.60;96.40;;;;;;5091675;28;20630;-66
2021/10/30 02:56:53;;;;;;;29.05;25.90;;;12.60;96.20;;;;;;5092206;28;20234;-67
2021/10/30 02:59:20;;;;;;;32.15;27.80;;;12.70;96.30;;;;;;5093036;28;20677;-67
2021/10/30 03:01:47;;;;;;;37.30;31.70;;;12.70;96.30;;;;;;5091902;28;20223;-66
2021/10/30 03:04:16;;;;;;;32.53;29.23;;;12.70;96.30;;;;;;5087224;28;20223;-66
2021/10/30 03:06:43;;;;;;;31.40;28.17;;;12.70;96.30;;;;;;5091222;28;20227;-66
2021/10/30 03:09:10;;;;;;;31.27;27.00;;;12.60;96.30;;;;;;5091756;28;20216;-66
2021/10/30 03:11:37;;;;;;;29.77;26.67;;;12.60;96.30;;;;;;5083667;28;20689;-66
2021/10/30 03:14:04;;;;;;;31.05;28.10;;;12.60;96.20;;;;;;5091824;28;20215;-66
2021/10/30 03:16:31;;;;;;;31.15;25.58;;;12.60;96.20;;;;;;5091465;28;20227;-66
2021/10/30 03:18:58;;;;;;;30.10;26.80;;;12.50;96.30;;;;;;5091754;28;20603;-66
2021/10/30 03:21:26;;;;;;;30.92;27.60;;;12.50;96.30;;;;;;5081146;28;20224;-66
2021/10/30 03:23:56;;;;;;;29.38;26.17;;;12.50;96.50;;;;;;5088587;28;20223;-66
2021/10/30 03:26:23;;;;;;;28.13;25.15;;;12.40;96.40;;;;;;5095304;28;20226;-66
2021/10/30 03:28:50;;;;;;;29.17;26.02;;;12.40;96.50;;;;;;5095520;28;20227;-66
2021/10/30 03:31:17;;;;;;;27.05;24.42;;;12.40;96.40;;;;;;5094320;28;20234;-66
2021/10/30 03:33:44;;;;;;;28.00;25.15;;;12.30;96.50;;;;;;5076007;28;20551;-66
2021/10/30 03:36:11;;;;;;;28.75;25.75;;;12.30;96.50;;;;;;5090720;28;20219;-66
2021/10/30 03:38:40;;;;;;;26.20;23.60;;;12.30;96.50;;;;;;5095206;28;20238;-66
2021/10/30 03:41:07;;;;;;;28.52;25.52;;;12.30;96.60;;;;;;5095624;28;20701;-66
2021/10/30 03:43:34;;;;;;;29.23;26.05;;;12.30;96.60;;;;;;5089667;27;20305;-66
2021/10/30 03:46:01;;;;;;;29.35;26.25;;;12.30;96.60;;;;;;5095539;28;20216;-67
2021/10/30 03:48:28;;;;;;;26.02;23.35;;;12.20;96.60;;;;;;5095243;28;20231;-67
2021/10/30 03:50:55;;;;;;;26.30;23.90;;;12.20;96.60;;;;;;5095474;28;20242;-66
2021/10/30 03:53:22;;;;;;;29.02;26.05;;;12.30;96.60;;;;;;5096171;28;20227;-66
2021/10/30 03:55:51;;;;;;;24.90;22.35;;;12.20;96.60;;;;;;5095672;28;20557;-66
2021/10/30 03:58:18;;;;;;;32.28;25.70;;;12.20;96.60;;;;;;5089129;28;20219;-66
2021/10/30 04:00:45;;;;;;;28.80;25.92;;;12.20;96.60;;;;;;5092982;28;20281;-66
2021/10/30 04:03:12;;;;;;;31.13;26.73;;;12.20;96.70;;;;;;5094153;28;20796;-66
2021/10/30 04:05:40;;;;;;;28.45;25.65;;;12.20;96.70;;;;;;5093657;28;20251;-66
2021/10/30 04:08:07;;;;;;;27.85;25.00;;;12.20;96.70;;;;;;5093668;28;20478;-67
2021/10/30 04:10:34;;;;;;;26.77;24.05;;;12.20;96.70;;;;;;5092825;28;20235;-66
2021/10/30 04:13:02;;;;;;;29.92;24.77;;;12.20;96.70;;;;;;5093328;28;20219;-66
2021/10/30 04:15:29;;;;;;;25.70;23.00;;;12.20;96.70;;;;;;5093263;28;20272;-66
2021/10/30 04:17:56;;;;;;;26.55;23.70;;;12.20;96.70;;;;;;5094441;28;20219;-66
2021/10/30 04:20:24;;;;;;;23.35;20.90;;;12.20;96.70;;;;;;5094017;28;20286;-66
2021/10/30 04:22:51;;;;;;;25.95;23.33;;;12.20;96.70;;;;;;5093764;28;20231;-66
2021/10/30 04:25:18;;;;;;;28.10;25.10;;;12.20;96.70;;;;;;5092935;28;20227;-66
2021/10/30 04:27:45;;;;;;;26.88;23.98;;;12.20;96.60;;;;;;5092780;28;20222;-66
2021/10/30 04:30:13;;;;;;;26.10;23.58;;;12.20;96.60;;;;;;5093056;28;20227;-66
2021/10/30 04:32:42;;;;;;;25.77;22.65;;;12.20;96.80;;;;;;5092710;28;20231;-65
2021/10/30 04:35:10;;;;;;;31.48;24.40;;;12.20;96.70;;;;;;5091745;28;20231;-66
2021/10/30 04:37:38;;;;;;;25.55;22.83;;;12.20;96.70;;;;;;5092828;28;20226;-66
2021/10/30 04:40:07;;;;;;;24.98;22.33;;;12.20;96.70;;;;;;5094576;28;20223;-65
2021/10/30 04:42:34;;;;;;;28.02;23.02;;;12.20;96.70;;;;;;5094116;28;20219;-66
2021/10/30 04:45:01;;;;;;;25.77;23.05;;;12.20;96.70;;;;;;5094626;28;20232;-66
2021/10/30 04:47:29;;;;;;;25.40;22.80;;;12.20;96.70;;;;;;5086653;28;20235;-66
2021/10/30 04:49:56;;;;;;;26.17;23.42;;;12.20;96.70;;;;;;5091337;28;20922;-66
2021/10/30 04:52:23;;;;;;;25.55;23.05;;;12.20;96.80;;;;;;5104102;27;20222;-66
2021/10/30 04:54:50;;;;;;;25.13;22.52;;;12.20;96.70;;;;;;5088691;28;20304;-66
2021/10/30 04:57:17;;;;;;;26.88;24.27;;;12.20;96.80;;;;;;5100909;27;20219;-66
2021/10/30 04:59:44;;;;;;;27.35;24.50;;;12.10;96.70;;;;;;5097777;28;20223;-67
2021/10/30 05:02:11;;;;;;;27.60;24.73;;;12.10;96.80;;;;;;5113127;28;20564;-67
2021/10/30 05:04:39;;;;;;;22.75;20.17;;;12.10;96.80;;;;;;5099751;27;20223;-66
2021/10/30 05:07:06;;;;;;;25.38;22.80;;;12.10;96.90;;;;;;5094363;28;20232;-66
2021/10/30 05:09:33;;;;;;;26.35;23.65;;;12.10;97.00;;;;;;5094013;28;20232;-67
2021/10/30 05:12:00;;;;;;;26.60;23.20;;;12.00;97.00;;;;;;5093960;28;20229;-67
2021/10/30 05:14:27;;;;;;;25.67;23.02;;;12.00;97.00;;;;;;5094254;28;20306;-66
2021/10/30 05:16:54;;;;;;;30.00;26.70;;;12.00;97.20;;;;;;5093620;28;20239;-67
2021/10/30 05:19:21;;;;;;;29.20;25.55;;;12.00;97.20;;;;;;5093933;28;20615;-67
2021/10/30 05:21:49;;;;;;;27.35;24.48;;;12.00;97.20;;;;;;5093688;28;20232;-67
2021/10/30 05:24:16;;;;;;;27.20;24.50;;;11.90;97.10;;;;;;5093836;28;20301;-67
2021/10/30 05:26:43;;;;;;;28.17;25.17;;;11.90;97.20;;;;;;5093451;28;20542;-67
2021/10/30 05:29:10;;;;;;;27.10;24.30;;;11.90;97.20;;;;;;5095718;28;20256;-66
2021/10/30 05:31:37;;;;;;;25.50;23.08;;;11.90;97.20;;;;;;5113746;28;20226;-67
2021/10/30 05:34:04;;;;;;;29.83;26.73;;;11.80;97.20;;;;;;5094747;28;20543;-67
2021/10/30 05:36:34;;;;;;;27.98;24.45;;;11.80;97.30;;;;;;5090124;28;20234;-67
2021/10/30 05:39:03;;;;;;;31.40;26.50;;;11.80;97.40;;;;;;5093371;28;20237;-66
2021/10/30 05:41:30;;;;;;;29.70;26.52;;;11.80;97.30;;;;;;5093634;28;20231;-67
2021/10/30 05:43:57;;;;;;;30.20;26.63;;;11.70;97.40;;;;;;5093006;28;20223;-67
2021/10/30 05:46:24;;;;;;;28.73;25.73;;;11.80;97.50;;;;;;5092910;28;20288;-67
2021/10/30 05:48:52;;;;;;;28.90;25.88;;;11.80;97.50;;;;;;5093127;28;20230;-66
2021/10/30 05:51:19;;;;;;;28.98;26.08;;;11.80;97.50;;;;;;5093318;28;20367;-67
2021/10/30 05:53:46;;;;;;;27.30;24.35;;;11.80;97.50;;;;;;5092947;28;20557;-67
2021/10/30 05:56:14;;;;;;;28.63;25.58;;;11.80;97.50;;;;;;5089498;28;20224;-67
2021/10/30 05:58:41;;;;;;;31.17;25.67;;;11.80;97.50;;;;;;5092818;28;20693;-67
2021/10/30 06:01:08;;;;;;;27.38;24.48;;;11.80;97.50;;;;;;5093117;28;20320;-66
2021/10/30 06:03:35;;;;;;;30.42;27.17;;;11.70;97.50;;;;;;5093209;28;20223;-67
2021/10/30 06:06:02;;;;;;;29.55;26.55;;;11.70;97.50;;;;;;5092816;28;20230;-67
2021/10/30 06:08:29;;;;;;;27.55;24.75;;;11.70;97.60;;;;;;5093067;28;20253;-67
2021/10/30 06:10:56;;;;;;;28.48;24.40;;;11.60;97.60;;;;;;5092801;28;20234;-66
2021/10/30 06:13:24;;;;;;;26.48;23.77;;;11.60;97.60;;;;;;5092991;28;20234;-67
2021/10/30 06:15:52;;;;;;;27.63;24.60;;;11.60;97.60;;;;;;5072439;28;20682;-67
2021/10/30 06:18:19;;;;;;;27.20;24.50;;;11.60;97.60;;;;;;5073062;28;20690;-67
2021/10/30 06:20:46;;;;;;;28.08;24.98;;;11.60;97.60;;;;;;5072302;28;20231;-67
2021/10/30 06:23:15;;;;;;;28.70;25.60;;;11.60;97.70;;;;;;5072698;28;20328;-67
2021/10/30 06:25:43;;;;;;;25.80;23.15;;;11.50;97.60;;;;;;5072164;28;20262;-67
2021/10/30 06:28:10;;;;;;;28.17;25.00;;;11.60;97.80;;;;;;5072765;28;20409;-67
2021/10/30 06:30:39;;;;;;;23.92;21.52;;;11.60;97.80;;;;;;5096171;28;20230;-67
2021/10/30 06:33:06;;;;;;;26.08;23.45;;;11.50;97.70;;;;;;5109928;28;20311;-67
2021/10/30 06:35:33;;;;;;;26.25;23.48;;;11.50;97.80;;;;;;5080976;28;20234;-67
2021/10/30 06:38:00;;;;;;;27.23;24.40;;;11.50;97.80;;;;;;5092239;28;20223;-67
2021/10/30 06:40:27;;;;;;;30.90;24.65;;;11.50;97.80;;;;;;5092760;28;20281;-67
2021/10/30 06:42:53;;;;;;;32.42;24.92;;;11.40;97.80;;;;;;5092311;28;20275;-67
2021/10/30 06:45:20;;;;;;;27.95;24.92;;;11.40;97.90;;;;;;5092573;28;20223;-67
2021/10/30 06:47:49;;;;;;;31.40;24.40;;;11.40;98.00;;;;;;5092312;28;20308;-67
2021/10/30 06:50:21;;;;;;;29.33;26.23;;;11.40;98.00;;;;;;5092629;28;20231;-67
2021/10/30 06:52:50;;;;;;;26.77;24.00;;;11.40;98.00;;;;;;5092282;28;20673;-67
2021/10/30 06:55:18;;;;;;;28.40;25.50;;;11.40;98.00;;;;;;5092393;28;20227;-67
2021/10/30 06:57:47;;;;;;;26.17;23.50;;;11.40;97.90;;;;;;5087095;28;20223;-67
2021/10/30 07:00:15;;;;;;;25.98;23.30;;;11.40;97.90;;;;;;5096609;28;20284;-67
2021/10/30 07:02:44;;;;;;;26.08;23.58;;;11.40;98.00;;;;;;5096806;28;20288;-67
2021/10/30 07:05:12;;;;;;;26.10;23.40;;;11.40;98.00;;;;;;5076296;28;20569;-67
2021/10/30 07:07:39;;;;;;;25.23;22.52;;;11.40;98.00;;;;;;5076258;28;20228;-67
2021/10/30 07:10:08;;;;;;;27.25;24.33;;;11.40;97.90;;;;;;5075830;28;20691;-67
2021/10/30 07:12:37;;;;;;;28.25;23.60;;;11.40;98.00;;;;;;5076491;28;20236;-67
2021/10/30 07:15:04;;;;;;;28.52;25.45;;;11.40;98.00;;;;;;5089397;28;20223;-67
2021/10/30 07:17:31;;;;;;;27.17;24.55;;;11.30;98.20;;;;;;5096438;28;20219;-67
2021/10/30 07:19:58;;;;;;;24.77;22.25;;;11.30;98.30;;;;;;5095913;28;20776;-68
2021/10/30 07:22:26;;;;;;;26.67;24.02;;;11.30;98.30;;;;;;5096299;28;20280;-68
2021/10/30 07:24:53;;;;;;;25.50;22.90;;;11.30;98.30;;;;;;5095631;28;20231;-67
2021/10/30 07:27:20;;;;;;;26.10;23.42;;;11.40;98.30;;;;;;5096269;28;20219;-67
2021/10/30 07:29:49;;;;;;;25.85;23.08;;;11.40;98.30;;;;;;5096173;28;20242;-67
2021/10/30 07:32:16;;;;;;;25.50;23.02;;;11.50;98.30;;;;;;5095753;28;20281;-67
2021/10/30 07:34:44;;;;;;;26.80;24.10;;;11.50;98.20;;;;;;5082599;28;20306;-67
2021/10/30 07:37:11;;;;;;;26.83;22.42;;;11.50;98.20;;;;;;5095635;28;20546;-67
2021/10/30 07:39:39;;;;;;;25.30;21.58;;;11.60;98.30;;;;;;5095994;28;20227;-67
2021/10/30 07:42:07;;;;;;;23.67;21.27;;;11.60;98.20;;;;;;5095274;28;20223;-67
2021/10/30 07:44:36;;;;;;;24.02;20.95;;;11.60;98.20;;;;;;5095857;28;20704;-66
2021/10/30 07:47:04;;;;;;;27.52;21.88;;;11.60;98.10;;;;;;5095443;28;20223;-67
2021/10/30 07:49:33;;;;;;;25.60;22.55;;;11.70;98.10;;;;;;5095601;28;20754;-66
2021/10/30 07:52:00;;;;;;;25.02;22.40;;;11.70;98.00;;;;;;5095250;28;20258;-66
2021/10/30 07:54:27;;;;;;;24.05;20.95;;;11.70;98.00;;;;;;5095823;28;20235;-67
2021/10/30 07:56:55;;;;;;;24.15;21.58;;;11.70;98.00;;;;;;5094861;28;20231;-67
2021/10/30 07:59:23;;;;;;;24.70;21.90;;;11.80;98.00;;;;;;5095736;28;20689;-67
2021/10/30 08:01:51;;;;;;;25.38;22.67;;;11.90;98.00;;;;;;5095520;28;20230;-67
2021/10/30 08:04:18;;;;;;;25.05;22.55;;;11.90;97.80;;;;;;5094826;28;20242;-66
2021/10/30 08:06:45;;;;;;;24.27;21.70;;;12.00;97.80;;;;;;5095734;28;20223;-66
2021/10/30 08:09:12;;;;;;;24.45;21.55;;;12.00;97.70;;;;;;5093981;28;20231;-67
2021/10/30 08:11:40;;;;;;;26.35;22.63;;;12.00;97.60;;;;;;5095352;28;20227;-67
2021/10/30 08:14:09;;;;;;;23.48;21.05;;;12.00;97.60;;;;;;5094852;28;20687;-67
2021/10/30 08:16:36;;;;;;;23.83;21.33;;;12.10;97.60;;;;;;5095254;28;20239;-67
2021/10/30 08:19:03;;;;;;;25.00;22.60;;;12.10;97.60;;;;;;5094809;28;20227;-67
2021/10/30 08:21:30;;;;;;;26.00;21.63;;;12.10;97.50;;;;;;5095237;28;20261;-67
2021/10/30 08:23:58;;;;;;;30.83;24.08;;;12.20;97.60;;;;;;5094484;28;20311;-67
2021/10/30 08:26:25;;;;;;;25.92;21.35;;;12.20;97.50;;;;;;5095206;28;20305;-67
2021/10/30 08:28:53;;;;;;;25.88;23.17;;;12.20;97.40;;;;;;5095083;28;20238;-67
2021/10/30 08:31:21;;;;;;;26.23;21.42;;;12.20;97.30;;;;;;5094638;28;20934;-67
2021/10/30 08:33:48;;;;;;;27.40;24.50;;;12.30;97.30;;;;;;5087264;28;20228;-67
2021/10/30 08:36:15;;;;;;;28.13;22.60;;;12.30;97.20;;;;;;5088421;28;20229;-67
2021/10/30 08:38:42;;;;;;;23.02;20.92;;;12.40;97.20;;;;;;5094901;28;20251;-67
2021/10/30 08:41:09;;;;;;;22.23;20.02;;;12.40;97.10;;;;;;5094289;28;20288;-67
2021/10/30 08:43:36;;;;;;;27.55;21.27;;;12.40;97.00;;;;;;5094742;28;20223;-67
2021/10/30 08:46:04;;;;;;;21.38;19.25;;;12.50;97.10;;;;;;5094337;28;20219;-66
2021/10/30 08:48:33;;;;;;;25.80;21.65;;;12.50;97.00;;;;;;5094669;28;20239;-66
2021/10/30 08:51:03;;;;;;;23.60;21.05;;;12.60;96.90;;;;;;5094410;28;20573;-67
2021/10/30 08:53:30;;;;;;;25.45;22.15;;;12.70;96.90;;;;;;5094586;28;20716;-67
2021/10/30 08:56:02;;;;;;;24.85;22.40;;;12.70;96.80;;;;;;5093810;28;20226;-67
2021/10/30 08:58:29;;;;;;;24.70;22.10;;;12.80;96.70;;;;;;5074198;28;20705;-67
2021/10/30 09:00:58;;;;;;;24.80;22.27;;;12.90;96.70;;;;;;5074226;28;20235;-68
2021/10/30 09:03:26;;;;;;;23.02;20.52;;;12.80;96.40;;;;;;5079038;28;20227;-67
2021/10/30 09:05:56;;;;;;;25.65;21.00;;;12.90;96.50;;;;;;5094500;28;20546;-66
2021/10/30 09:08:26;;;;;;;24.90;21.70;;;12.90;96.50;;;;;;5093878;28;20230;-66
2021/10/30 09:10:55;;;;;;;23.08;20.95;;;13.00;96.50;;;;;;5094052;28;20227;-66
2021/10/30 09:13:24;;;;;;;22.95;20.65;;;13.10;96.50;;;;;;5093922;28;20224;-66
2021/10/30 09:15:52;;;;;;;21.05;18.92;;;13.10;96.50;;;;;;5093849;28;20219;-66
2021/10/30 09:18:27;;;;;;;23.55;20.95;;;13.20;96.40;;;;;;5093532;28;20234;-66
2021/10/30 09:20:56;;;;;;;23.25;20.75;;;13.30;96.20;;;;;;5093778;28;20741;-66
2021/10/30 09:23:27;;;;;;;23.73;21.20;;;13.30;95.90;;;;;;5093617;28;20231;-66
2021/10/30 09:25:58;;;;;;;23.25;20.88;;;13.40;95.80;;;;;;5093798;28;20227;-66
2021/10/30 09:28:27;;;;;;;22.58;20.17;;;13.40;95.70;;;;;;5093417;28;20246;-66
2021/10/30 09:31:03;;;;;;;22.55;20.30;;;13.50;95.70;;;;;;5093907;28;20233;-66
2021/10/30 09:33:31;;;;;;;20.90;18.83;;;13.60;95.70;;;;;;5088447;28;20232;-66
2021/10/30 09:36:08;;;;;;;20.10;18.08;;;13.60;95.30;;;;;;5085450;28;20310;-66
2021/10/30 09:38:37;;;;;;;22.17;19.35;;;13.70;95.30;;;;;;5092978;28;20227;-66
2021/10/30 09:41:19;;;;;;;21.95;19.92;;;13.80;95.20;;;;;;5093884;28;20219;-66
2021/10/30 09:43:53;;;;;;;22.13;19.83;;;13.80;94.80;;;;;;5093738;28;20223;-66
2021/10/30 09:46:20;;;;;;;22.13;19.87;;;13.80;94.80;;;;;;5093135;28;20218;-66
2021/10/30 09:48:47;;;;;;;20.53;18.43;;;13.80;94.80;;;;;;5093341;28;20472;-66
2021/10/30 09:51:32;;;;;;;22.43;18.10;;;14.00;94.70;;;;;;5093118;28;20971;-67
2021/10/30 09:54:00;;;;;;;21.63;19.33;;;14.10;94.60;;;;;;5073462;28;20486;-67
2021/10/30 09:56:44;;;;;;;20.33;18.23;;;14.10;94.50;;;;;;5082458;28;20509;-67
2021/10/30 09:59:12;;;;;;;20.75;18.65;;;14.20;94.30;;;;;;5092842;28;20235;-68
2021/10/30 10:01:39;;;;;;;20.58;18.38;;;14.30;94.40;;;;;;5093265;28;20750;-67
2021/10/30 10:04:07;;;;;;;21.48;19.00;;;14.30;94.40;;;;;;5092938;28;20569;-67
2021/10/30 10:06:35;;;;;;;19.42;17.48;;;14.30;94.20;;;;;;5093161;28;20230;-67
2021/10/30 10:09:03;;;;;;;20.17;18.20;;;14.30;94.10;;;;;;5092741;28;20234;-68
2021/10/30 10:11:30;;;;;;;20.25;18.15;;;14.40;94.00;;;;;;5093263;28;20227;-65
2021/10/30 10:13:57;;;;;;;20.10;18.10;;;14.40;94.00;;;;;;5092720;28;20227;-67
2021/10/30 10:16:26;;;;;;;19.77;17.63;;;14.40;94.20;;;;;;5093141;28;20469;-67
2021/10/30 10:18:54;;;;;;;21.33;18.85;;;14.40;93.90;;;;;;5093013;28;20531;-67
2021/10/30 10:21:23;;;;;;;20.43;18.43;;;14.60;94.00;;;;;;5087800;28;20216;-67
2021/10/30 10:23:51;;;;;;;19.90;17.98;;;14.60;94.00;;;;;;5081384;28;20466;-67
2021/10/30 10:26:19;;;;;;;22.35;18.10;;;14.60;93.70;;;;;;5082433;28;20227;-67
2021/10/30 10:29:01;;;;;;;18.80;16.80;;;14.50;93.50;;;;;;5092855;28;20583;-67
2021/10/30 10:31:28;;;;;;;18.58;16.73;;;14.50;93.50;;;;;;5075040;28;20466;-67
2021/10/30 10:34:09;;;;;;;21.20;18.53;;;14.50;93.40;;;;;;5072254;28;20228;-67
2021/10/30 10:36:37;;;;;;;21.93;17.40;;;14.60;93.70;;;;;;5089708;28;20477;-67
2021/10/30 10:39:20;;;;;;;19.80;16.13;;;14.70;93.70;;;;;;5082660;28;20493;-67
2021/10/30 10:41:55;;;;;;;19.38;17.23;;;14.80;93.70;;;;;;5072366;28;20220;-67
2021/10/30 10:45:04;;;;;;;18.65;16.65;;;14.80;93.70;;;;;;5083829;28;20225;-67
2021/10/30 10:47:55;;;;;;;19.17;17.40;;;14.80;93.30;;;;;;5092404;28;20230;-67
2021/10/30 10:50:42;;;;;;;19.07;17.23;;;14.90;93.40;;;;;;5092379;28;20473;-67
2021/10/30 10:53:29;;;;;;;19.20;16.33;;;14.90;93.20;;;;;;5092466;28;20457;-67
2021/10/30 10:56:27;;;;;;;19.47;17.57;;;15.00;93.40;;;;;;5092311;28;20449;-65
2021/10/30 10:59:03;;;;;;;17.37;15.53;;;14.90;93.30;;;;;;5072094;28;20470;-68
2021/10/30 11:01:31;;;;;;;18.07;16.27;;;15.00;93.40;;;;;;5072363;28;20507;-66
2021/10/30 11:04:11;;;;;;;21.23;19.03;;;15.10;93.60;;;;;;5082086;28;20460;-66
2021/10/30 11:06:42;;;;;;;24.50;19.57;;;15.10;93.40;;;;;;5092061;28;20526;-66
2021/10/30 11:09:14;;;;;;;17.30;15.43;;;15.10;93.30;;;;;;5092469;28;20955;-67
2021/10/30 11:11:43;;;;;;;17.03;15.33;;;15.20;93.40;;;;;;5092110;28;20477;-66
2021/10/30 11:14:13;;;;;;;19.40;17.53;;;15.10;93.10;;;;;;5092382;28;20468;-66
2021/10/30 11:16:45;;;;;;;19.20;17.27;;;15.00;93.10;;;;;;5091915;28;20556;-66
2021/10/30 11:19:26;;;;;;;19.67;17.20;;;15.00;93.10;;;;;;5092463;28;20506;-66
2021/10/30 11:21:58;;;;;;;17.80;16.00;;;15.00;93.00;;;;;;5084755;28;20466;-67
2021/10/30 11:24:30;;;;;;;17.20;15.57;;;15.10;93.10;;;;;;5071858;28;20462;-66
2021/10/30 11:27:08;;;;;;;17.17;15.47;;;15.10;93.10;;;;;;5071744;28;20783;-67
2021/10/30 11:29:35;;;;;;;17.77;16.13;;;15.10;93.00;;;;;;5075927;28;20472;-66
2021/10/30 11:32:04;;;;;;;18.73;15.50;;;15.20;93.10;;;;;;5092108;28;20500;-66
2021/10/30 11:34:31;;;;;;;17.67;15.90;;;15.20;92.90;;;;;;5078705;28;20469;-67
2021/10/30 11:36:58;;;;;;;17.23;15.40;;;15.20;92.90;;;;;;5091732;28;20458;-66
2021/10/30 11:39:28;;;;;;;17.83;15.93;;;15.20;92.90;;;;;;5092230;28;20466;-67
2021/10/30 11:41:55;;;;;;;17.53;15.77;;;15.20;92.60;;;;;;5091778;28;20462;-66
2021/10/30 11:44:25;;;;;;;17.40;15.60;;;15.20;93.10;;;;;;5092472;28;20465;-66
2021/10/30 11:46:54;;;;;;;18.83;17.00;;;15.20;92.80;;;;;;5095306;28;20544;-66
2021/10/30 11:49:27;;;;;;;17.13;15.40;;;15.30;92.60;;;;;;5095788;28;20830;-67
2021/10/30 11:52:01;;;;;;;16.37;14.70;;;15.30;92.40;;;;;;5095296;28;20489;-66
2021/10/30 11:54:29;;;;;;;15.90;14.30;;;15.40;92.40;;;;;;5095563;28;20479;-67
2021/10/30 11:56:56;;;;;;;16.87;15.17;;;15.50;92.40;;;;;;5095053;28;20465;-66
2021/10/30 11:59:24;;;;;;;17.23;15.50;;;15.60;92.20;;;;;;5095581;28;20465;-67
2021/10/30 12:01:52;;;;;;;16.83;15.23;;;15.70;91.90;;;;;;5095203;28;20465;-67
2021/10/30 12:04:21;;;;;;;16.47;14.87;;;15.80;92.00;;;;;;5095375;28;20537;-67
2021/10/30 12:06:50;;;;;;;17.23;15.60;;;15.80;91.90;;;;;;5095042;28;20528;-67
2021/10/30 12:09:23;;;;;;;19.17;17.37;;;15.90;92.00;;;;;;5095234;28;20469;-67
2021/10/30 12:11:52;;;;;;;17.07;15.37;;;15.90;91.90;;;;;;5095121;28;20532;-66
2021/10/30 12:14:29;;;;;;;25.13;22.83;;;15.90;92.00;;;;;;5095167;28;20522;-66
2021/10/30 12:16:59;;;;;;;21.63;18.93;;;15.80;92.00;;;;;;5094781;28;20864;-67
2021/10/30 12:19:28;;;;;;;23.47;19.13;;;15.80;92.10;;;;;;5095277;28;20534;-66
2021/10/30 12:22:09;;;;;;;19.40;17.30;;;15.80;92.10;;;;;;5094517;28;20462;-67
2021/10/30 12:24:37;;;;;;;19.77;17.67;;;15.90;92.20;;;;;;5095036;28;21102;-66
2021/10/30 12:27:06;;;;;;;21.23;19.07;;;15.90;92.20;;;;;;5094743;28;20453;-67
2021/10/30 12:29:41;;;;;;;22.67;20.30;;;15.90;92.30;;;;;;5094775;28;21034;-67
2021/10/30 12:32:11;;;;;;;25.30;22.93;;;15.90;92.40;;;;;;5094644;28;20495;-67
2021/10/30 12:34:40;;;;;;;24.33;22.03;;;15.90;92.40;;;;;;5081157;28;20473;-67
2021/10/30 12:37:09;;;;;;;23.73;21.30;;;15.80;92.30;;;;;;5094531;28;20461;-66